Bonus, Illinois
Current Conditions -  °F | °C
As of 1:57 PM on Monday 24 Nov 2014 (Local Time) from KRFD Reporting Station
Light Snow Light Snow  
Wind Chill: 15°   Ceiling: 1400
Heat Index: 28°   Visibility: 1.5mi
Dew Point: 24°   Wind: 21mph
Humidity: 85%   Direction: 260°W
Pressure: 29.45"   Gusts: 32mph
Location:  42.267°N, 88.7326°W
Report Text: KRFD 241957Z 26018G28KT 1 1/2SM -SN BLSN FEW008 BKN014 OVC018 M02/M04 A2945 RMK AO2 P0000 T10221044
Loading
Personal Weather Stations






























Interactive Weather Map New forecast layout! Learn more

10-Day Weather Forecast

Advertisements
Track Severe Weather on mobile